Weather at Pinnacles Ranch Airport [CLOSED]

Public forecast

Using degrees Fahrenheit for public forecast. Weather courtesy of forecast.io.

Closest aviation weather report (METAR) to Pinnacles Ranch Airport

Closest report is Salinas Municipal Airport, 24.5 nm (45.3 km) WNW. Retrieved 2020/10/23 19:53 UTC (56 minutes ago):

KSNS 231953Z 15008KT 10SM CLR 19/12 A2998 RMK AO2 SLP162 T01940117

Closest aviation forecast (TAF) to Pinnacles Ranch Airport

Closest forecast is Salinas Municipal Airport, 24.5 nm (45.3 km) WNW. Retrieved 2020/10/23 18:42 UTC (2 hours ago):

TAF KSNS 231739Z 2318/2418 VRB04KT P6SM FEW013 FM232000 31010KT P6SM SKC FM240300 32008KT P6SM OVC012 FM241700 VRB05KT P6SM BKN015